Time;durP1;ratioP1;P1;durP2;ratioP2;P2;SDS_P1;SDS_P2;PMS_P1;PMS_P2;Temp;Humidity;BMP_temperature;BMP_pressure;BME280_temperature;BME280_humidity;BME280_pressure;Samples;Min_cycle;Max_cycle;Signal;HPM_P1;HPM_P2
2023/09/21 00:01:11;;;;;;;1.40;1.30;;;;;;;16.83;59.09;97947.94;5116467;27;42956;-78
2023/09/21 00:03:40;;;;;;;1.13;1.00;;;;;;;16.86;59.46;97952.16;5117101;27;42299;-77
2023/09/21 00:06:09;;;;;;;2.00;1.00;;;;;;;16.84;59.55;97949.63;5100009;27;38776;-78
2023/09/21 00:08:38;;;;;;;1.37;0.93;;;;;;;16.79;59.77;97941.25;5116357;27;40641;-78
2023/09/21 00:11:06;;;;;;;1.00;1.00;;;;;;;16.68;59.45;97930.84;5133971;27;41480;-77
2023/09/21 00:13:39;;;;;;;2.40;1.20;;;;;;;16.72;59.41;97937.53;5134502;27;42933;-78
2023/09/21 00:16:10;;;;;;;2.27;1.03;;;;;;;16.62;59.47;97926.09;5117692;27;39803;-77
2023/09/21 00:18:41;;;;;;;2.43;1.30;;;;;;;16.67;59.98;97939.00;5117436;27;41793;-77
2023/09/21 00:21:12;;;;;;;1.50;1.00;;;;;;;16.61;59.94;97937.75;5134729;27;41865;-78
2023/09/21 00:23:41;;;;;;;1.23;1.10;;;;;;;16.58;59.83;97934.53;5100482;27;41817;-78
2023/09/21 00:26:09;;;;;;;1.33;1.10;;;;;;;16.54;60.04;97926.00;5134613;27;39267;-78
2023/09/21 00:28:37;;;;;;;1.80;1.40;;;;;;;16.52;60.71;97928.00;5134360;27;42774;-77
2023/09/21 00:31:04;;;;;;;1.50;1.40;;;;;;;16.47;61.02;97920.44;5117638;27;42210;-78
2023/09/21 00:33:34;;;;;;;1.60;1.20;;;;;;;16.46;61.48;97917.91;5134602;27;41628;-78
2023/09/21 00:36:04;;;;;;;1.73;1.10;;;;;;;16.43;61.10;97923.59;5117412;27;40036;-77
2023/09/21 00:38:33;;;;;;;1.20;1.00;;;;;;;16.39;61.14;97911.53;5100190;27;40774;-78
2023/09/21 00:41:04;;;;;;;1.17;1.07;;;;;;;16.37;61.71;97913.50;5116757;27;41881;-77
2023/09/21 00:43:34;;;;;;;1.00;0.90;;;;;;;16.35;62.02;97911.00;5098544;27;40892;-78
2023/09/21 01:11:04;;;;;;;1.40;1.00;;;;;;;15.91;63.37;97878.06;5152118;27;44456;-78
2023/09/21 01:13:35;;;;;;;1.63;1.20;;;;;;;15.89;63.47;97874.72;5119677;27;41206;-77
2023/09/21 01:16:04;;;;;;;1.20;1.10;;;;;;;15.69;63.35;97843.84;5119962;27;41808;-78
2023/09/21 01:18:32;;;;;;;1.57;1.00;;;;;;;15.86;63.25;97871.50;5136987;27;40913;-78
2023/09/21 01:21:06;;;;;;;1.20;1.10;;;;;;;15.84;63.33;97868.97;5119464;27;41756;-77
2023/09/21 01:23:45;;;;;;;1.20;1.10;;;;;;;15.83;63.69;97864.63;5120089;27;42553;-77
2023/09/21 01:26:14;;;;;;;1.10;0.93;;;;;;;15.82;63.27;97865.66;5135179;27;39168;-77
2023/09/21 01:28:42;;;;;;;1.10;1.00;;;;;;;15.79;63.60;97871.28;5118013;27;41052;-77
2023/09/21 01:31:13;;;;;;;4.47;1.30;;;;;;;15.78;63.36;97865.09;5118114;27;41806;-78
2023/09/21 01:33:41;;;;;;;2.20;1.30;;;;;;;15.75;64.01;97864.56;5136003;27;41547;-78
2023/09/21 01:36:12;;;;;;;2.90;1.57;;;;;;;15.73;64.02;97871.88;5135907;27;40902;-78
2023/09/21 01:38:43;;;;;;;1.90;1.10;;;;;;;15.59;64.35;97848.38;5118308;27;41517;-77
2023/09/21 01:41:14;;;;;;;1.63;1.20;;;;;;;15.66;64.36;97870.81;5135458;27;42690;-77
2023/09/21 01:43:41;;;;;;;1.50;1.13;;;;;;;15.57;64.08;97853.06;5135742;27;41880;-77
2023/09/21 01:46:12;;;;;;;1.73;1.20;;;;;;;15.59;64.34;97867.06;5116562;27;39986;-77
2023/09/21 01:48:39;;;;;;;1.73;1.10;;;;;;;15.54;64.09;97864.84;5118438;27;40828;-77
2023/09/21 01:51:08;;;;;;;1.20;1.10;;;;;;;15.51;63.87;97858.97;5135202;27;41910;-77
2023/09/21 01:53:35;;;;;;;1.23;1.13;;;;;;;15.41;64.12;97851.88;5117984;27;41206;-77
2023/09/21 01:56:07;;;;;;;1.97;1.23;;;;;;;15.43;64.00;97860.56;5118230;27;41839;-77
2023/09/21 01:58:38;;;;;;;2.00;1.30;;;;;;;15.42;64.10;97864.22;5132227;27;41746;-77
2023/09/21 02:01:05;;;;;;;3.63;1.30;;;;;;;15.41;64.22;97859.88;5117899;27;42781;-77
2023/09/21 02:03:33;;;;;;;1.20;1.00;;;;;;;15.39;64.34;97861.00;5118363;27;42320;-78
2023/09/21 02:06:02;;;;;;;1.87;1.47;;;;;;;15.37;64.28;97862.97;5117943;27;42284;-78
2023/09/21 02:08:33;;;;;;;1.93;1.30;;;;;;;15.33;64.48;97853.63;5117514;27;41244;-77
2023/09/21 02:11:00;;;;;;;3.90;1.30;;;;;;;15.30;65.04;97838.75;5117399;27;43439;-77
2023/09/21 02:13:28;;;;;;;1.87;1.30;;;;;;;15.34;65.41;97844.59;5118582;27;42888;-77
2023/09/21 02:15:59;;;;;;;1.03;0.93;;;;;;;15.36;65.50;97840.78;5136548;27;39119;-77
2023/09/21 02:18:27;;;;;;;1.53;1.10;;;;;;;15.37;65.75;97834.47;5136171;27;42350;-77
2023/09/21 02:20:55;;;;;;;1.53;1.30;;;;;;;15.42;66.67;97832.19;5118162;27;43894;-77
2023/09/21 02:23:23;;;;;;;2.23;1.57;;;;;;;15.48;66.30;97840.56;5154607;27;42162;-78
2023/09/21 02:25:52;;;;;;;2.37;1.70;;;;;;;15.52;66.04;97832.13;5118824;27;40095;-77
2023/09/21 02:28:19;;;;;;;2.07;1.40;;;;;;;15.60;66.15;97839.38;5119314;27;41729;-77
2023/09/21 02:30:47;;;;;;;1.70;1.53;;;;;;;15.67;66.14;97835.13;5118407;27;41927;-77
2023/09/21 02:33:17;;;;;;;1.30;1.20;;;;;;;15.70;65.90;97837.50;5154533;27;42919;-78
2023/09/21 02:35:46;;;;;;;2.03;1.53;;;;;;;15.47;66.02;97802.38;5154306;27;40945;-77
2023/09/21 02:38:17;;;;;;;2.17;1.77;;;;;;;15.77;65.82;97830.56;5135553;27;40760;-77
2023/09/21 02:40:47;;;;;;;1.40;1.00;;;;;;;15.81;66.24;97834.59;5117923;27;41835;-77
2023/09/21 02:43:16;;;;;;;1.80;1.40;;;;;;;15.82;66.07;97837.09;5099637;27;41271;-78
2023/09/21 02:45:44;;;;;;;1.77;1.57;;;;;;;15.85;66.00;97841.28;5134523;27;42553;-77
2023/09/21 02:48:14;;;;;;;2.53;1.70;;;;;;;15.79;66.39;97818.75;5117048;27;40552;-77
2023/09/21 02:50:48;;;;;;;1.60;1.50;;;;;;;15.85;66.54;97830.63;5134920;27;42884;-77
2023/09/21 02:53:15;;;;;;;3.77;1.60;;;;;;;15.82;66.55;97820.28;5117277;27;41559;-77
2023/09/21 02:55:44;;;;;;;1.60;1.30;;;;;;;15.86;66.34;97829.63;5117518;27;38945;-77
2023/09/21 02:58:15;;;;;;;1.13;1.10;;;;;;;15.87;66.36;97825.97;5100237;27;41783;-77
2023/09/21 03:00:49;;;;;;;1.70;1.30;;;;;;;15.88;66.10;97822.31;5117007;27;42866;-77
2023/09/21 03:03:19;;;;;;;2.07;1.30;;;;;;;15.83;65.93;97813.91;5134104;27;42631;-77
2023/09/21 03:05:51;;;;;;;1.40;1.30;;;;;;;15.90;66.29;97820.31;5116891;27;39261;-78
2023/09/21 03:08:19;;;;;;;1.93;1.60;;;;;;;15.72;66.43;97795.47;5116732;27;42152;-77
2023/09/21 03:11:10;;;;;;;1.93;1.67;;;;;;;15.91;66.59;97816.66;5132101;27;43012;-77
2023/09/21 03:13:38;;;;;;;2.77;1.43;;;;;;;15.71;66.55;97777.78;5118026;27;42361;-77
2023/09/21 03:16:10;;;;;;;3.27;1.40;;;;;;;15.95;66.45;97811.88;5117997;27;40436;-77
2023/09/21 03:18:38;;;;;;;1.43;1.33;;;;;;;15.94;66.35;97799.50;5118009;27;41114;-77
2023/09/21 03:21:14;;;;;;;1.60;1.43;;;;;;;15.98;66.42;97803.53;5101095;27;43187;-77
2023/09/21 03:23:42;;;;;;;2.93;1.83;;;;;;;15.98;67.02;97791.00;5132144;27;42056;-77
2023/09/21 03:26:14;;;;;;;1.90;1.40;;;;;;;15.93;67.98;97779.97;5135366;27;38823;-77
2023/09/21 03:28:50;;;;;;;2.00;1.70;;;;;;;15.96;67.23;97787.66;5134939;27;41981;-77
2023/09/21 03:31:18;;;;;;;2.30;1.23;;;;;;;15.97;67.61;97783.16;5119214;27;42172;-77
2023/09/21 03:33:47;;;;;;;1.77;1.33;;;;;;;15.98;67.60;97791.00;5117470;27;41252;-77
2023/09/21 03:36:16;;;;;;;1.50;1.33;;;;;;;16.00;67.76;97783.69;5117739;27;39851;-77
2023/09/21 03:38:47;;;;;;;1.83;1.37;;;;;;;16.03;67.32;97787.88;5118007;27;41806;-77
2023/09/21 03:58:28;;;;;;;2.87;1.70;;;;;;;16.21;67.27;97769.13;5114723;27;40671;-77
2023/09/21 04:00:56;;;;;;;3.57;1.47;;;;;;;16.11;67.89;97751.38;5133292;27;39977;-77
2023/09/21 04:03:26;;;;;;;2.03;1.30;;;;;;;16.21;68.03;97763.78;5116318;27;40590;-77
2023/09/21 04:06:06;;;;;;;1.70;1.43;;;;;;;16.20;67.48;97762.09;5133777;27;43068;-77
2023/09/21 04:08:34;;;;;;;1.70;1.23;;;;;;;16.15;67.54;97763.44;5116440;27;40912;-78
2023/09/21 04:11:01;;;;;;;1.63;1.20;;;;;;;16.10;67.69;97756.88;5116482;27;39696;-77
2023/09/21 04:13:30;;;;;;;1.47;1.37;;;;;;;16.01;67.52;97752.47;5116680;27;41325;-78
2023/09/21 04:16:00;;;;;;;1.77;1.30;;;;;;;15.95;67.36;97747.78;5117335;27;42132;-78
2023/09/21 04:18:35;;;;;;;2.93;1.33;;;;;;;15.92;67.48;97751.59;5116765;27;42657;-77
2023/09/21 04:21:10;;;;;;;1.73;1.13;;;;;;;15.93;67.69;97766.63;5153501;27;40848;-77
2023/09/21 04:23:43;;;;;;;1.40;1.30;;;;;;;15.90;67.40;97760.75;5137583;27;40841;-77
2023/09/21 04:26:12;;;;;;;1.23;1.13;;;;;;;15.82;67.54;97759.69;5104733;27;41749;-78
2023/09/21 04:28:43;;;;;;;1.30;1.20;;;;;;;15.80;67.44;97766.19;5137366;27;42356;-77
2023/09/21 04:31:12;;;;;;;2.13;1.47;;;;;;;15.77;67.45;97764.66;5120722;27;40688;-77
2023/09/21 04:33:40;;;;;;;1.43;1.00;;;;;;;15.71;67.43;97767.09;5120547;27;42428;-77
2023/09/21 04:36:08;;;;;;;1.30;1.13;;;;;;;15.67;67.28;97763.91;5120419;27;43441;-77
2023/09/21 04:38:37;;;;;;;2.00;1.30;;;;;;;15.36;67.53;97711.91;5120208;27;41342;-77
2023/09/21 04:41:06;;;;;;;1.20;1.10;;;;;;;15.63;67.48;97762.53;5103554;27;39418;-77
2023/09/21 04:53:36;;;;;;;1.40;1.30;;;;;;;15.56;68.19;97753.50;5148802;27;40667;-78
2023/09/21 04:56:04;;;;;;;1.70;1.60;;;;;;;15.60;68.36;97746.81;5115176;27;40784;-77
2023/09/21 04:58:32;;;;;;;1.30;1.20;;;;;;;15.58;68.45;97734.66;5115457;27;42014;-77
2023/09/21 05:01:09;;;;;;;1.07;1.03;;;;;;;15.63;68.04;97738.53;5116015;27;41369;-80
2023/09/21 05:03:38;;;;;;;3.57;1.20;;;;;;;15.54;68.20;97731.41;5116140;27;39028;-80
2023/09/21 05:06:06;;;;;;;1.97;1.37;;;;;;;15.63;68.25;97746.53;5132578;27;41823;-76
2023/09/21 05:08:36;;;;;;;1.63;1.30;;;;;;;15.70;68.28;97754.78;5132054;27;43663;-77
2023/09/21 05:11:05;;;;;;;2.40;1.30;;;;;;;15.67;68.02;97736.38;5114995;27;42540;-79
2023/09/21 05:13:33;;;;;;;2.50;1.67;;;;;;;15.81;68.20;97746.50;5132432;27;40423;-78
2023/09/21 05:16:00;;;;;;;2.80;1.70;;;;;;;15.87;68.08;97751.22;5134453;27;41725;-78
2023/09/21 05:18:28;;;;;;;2.50;1.33;;;;;;;16.02;68.37;97744.31;5132485;27;41898;-78
2023/09/21 05:20:56;;;;;;;1.70;1.33;;;;;;;16.12;68.82;97739.69;5133470;27;43096;-78
2023/09/21 05:23:24;;;;;;;1.53;1.23;;;;;;;16.17;69.78;97742.75;5133311;27;40544;-79
2023/09/21 05:25:51;;;;;;;1.87;1.70;;;;;;;16.10;69.86;97725.66;5116028;27;41666;-79
2023/09/21 05:28:20;;;;;;;1.80;1.67;;;;;;;16.25;69.77;97747.28;5133164;27;41571;-79
2023/09/21 05:30:48;;;;;;;1.90;1.33;;;;;;;16.20;69.64;97730.88;5132664;27;42422;-78
2023/09/21 05:33:15;;;;;;;1.47;1.37;;;;;;;16.31;69.54;97748.50;5133449;27;39804;-79
2023/09/21 05:35:51;;;;;;;1.63;1.20;;;;;;;16.35;69.47;97733.81;5133204;27;42034;-79
2023/09/21 05:38:19;;;;;;;1.50;1.30;;;;;;;16.32;69.42;97726.13;5130969;27;43675;-80
2023/09/21 05:40:46;;;;;;;1.33;1.20;;;;;;;16.38;69.16;97731.66;5133611;27;42094;-81
2023/09/21 05:43:15;;;;;;;1.53;1.43;;;;;;;16.30;69.07;97709.41;5113928;27;39370;-80
2023/09/21 05:45:44;;;;;;;1.83;1.60;;;;;;;16.45;68.97;97734.50;5132333;27;42077;-80
2023/09/21 05:48:15;;;;;;;2.13;1.40;;;;;;;16.51;68.66;97728.53;5133296;27;42656;-78
2023/09/21 05:50:43;;;;;;;3.07;1.53;;;;;;;16.56;68.53;97734.25;5114747;27;42656;-79
2023/09/21 05:53:11;;;;;;;2.60;1.60;;;;;;;16.59;68.67;97723.22;5133049;27;40790;-80
2023/09/21 05:55:38;;;;;;;3.50;1.70;;;;;;;16.64;68.56;97734.31;5129272;27;42511;-80
2023/09/21 05:58:06;;;;;;;1.43;1.30;;;;;;;16.68;68.32;97735.69;5132238;27;42087;-80
2023/09/21 06:00:33;;;;;;;2.67;1.43;;;;;;;16.72;68.35;97742.34;5132150;27;41410;-80
2023/09/21 06:03:03;;;;;;;1.40;1.30;;;;;;;16.77;68.50;97745.41;5132537;27;40227;-80
2023/09/21 06:05:31;;;;;;;2.07;1.37;;;;;;;16.74;68.78;97734.19;5131981;27;40774;-78
2023/09/21 06:07:58;;;;;;;1.63;1.50;;;;;;;16.88;68.60;97747.75;5133375;27;42464;-80
2023/09/21 06:10:27;;;;;;;2.97;2.00;;;;;;;16.95;68.59;97741.75;5131716;27;41303;-81
2023/09/21 06:12:55;;;;;;;2.20;1.80;;;;;;;17.01;68.19;97741.13;5132538;27;41307;-80
2023/09/21 06:15:23;;;;;;;2.50;2.00;;;;;;;16.99;68.36;97716.38;5134004;27;41818;-79
2023/09/21 06:17:51;;;;;;;3.13;1.70;;;;;;;17.13;68.40;97729.09;5115614;27;42917;-79
2023/09/21 06:20:20;;;;;;;2.60;1.93;;;;;;;17.20;69.09;97730.09;5133951;27;42447;-81
2023/09/21 06:22:48;;;;;;;2.00;1.80;;;;;;;17.26;69.19;97729.47;5132695;27;41109;-80
2023/09/21 06:25:16;;;;;;;2.23;1.87;;;;;;;17.35;69.00;97732.97;5132991;27;42075;-78
2023/09/21 06:27:44;;;;;;;2.10;1.90;;;;;;;17.47;69.74;97745.88;5115254;27;42835;-80
2023/09/21 06:30:12;;;;;;;3.30;2.60;;;;;;;17.57;69.57;97749.22;5115535;27;42212;-79
2023/09/21 06:32:40;;;;;;;2.97;2.60;;;;;;;17.64;69.36;97737.88;5132710;27;40332;-79
2023/09/21 06:35:08;;;;;;;2.47;2.17;;;;;;;17.83;69.16;97732.16;5133607;27;42262;-80
2023/09/21 06:37:37;;;;;;;4.17;2.07;;;;;;;17.98;69.20;97735.00;5132887;27;43782;-79
2023/09/21 06:40:07;;;;;;;3.60;2.43;;;;;;;18.11;68.85;97738.84;5131013;27;42306;-79
2023/09/21 06:42:34;;;;;;;2.83;2.20;;;;;;;18.25;69.25;97742.66;5130723;27;38910;-79
2023/09/21 06:45:02;;;;;;;2.60;2.03;;;;;;;18.34;68.47;97740.78;5114102;27;40737;-80
2023/09/21 06:47:30;;;;;;;2.87;1.80;;;;;;;18.47;68.63;97739.25;5113829;27;41429;-80
2023/09/21 06:49:57;;;;;;;4.60;2.63;;;;;;;18.62;67.57;97734.03;5113589;27;42499;-79
2023/09/21 06:52:25;;;;;;;5.50;2.17;;;;;;;18.78;66.96;97725.09;5131482;27;39449;-80
2023/09/21 06:54:54;;;;;;;2.73;2.10;;;;;;;19.14;67.20;97728.09;5131159;27;42428;-80
2023/09/21 06:57:23;;;;;;;5.93;2.17;;;;;;;19.33;65.86;97730.28;5114125;27;42723;-80
2023/09/21 06:59:52;;;;;;;3.07;2.13;;;;;;;19.35;65.65;97714.84;5131037;27;42178;-80
2023/09/21 07:02:22;;;;;;;4.27;2.47;;;;;;;19.12;65.54;97692.53;5115223;27;20221;-80
2023/09/21 07:05:12;;;;;;;5.40;2.07;;;;;;;19.32;65.44;97716.03;5132654;27;43259;-80
2023/09/21 07:07:41;;;;;;;4.03;2.90;;;;;;;19.40;65.66;97733.94;5131241;27;41781;-81
2023/09/21 07:10:11;;;;;;;3.00;2.30;;;;;;;19.44;65.32;97737.94;5114000;27;41132;-80
2023/09/21 07:12:40;;;;;;;6.17;2.90;;;;;;;19.51;65.41;97744.31;5134759;27;39943;-80
2023/09/21 07:15:08;;;;;;;3.93;2.37;;;;;;;19.65;65.34;97743.53;5142775;27;42281;-79
2023/09/21 07:17:36;;;;;;;3.30;2.67;;;;;;;19.70;65.07;97735.75;5118741;27;41748;-80
2023/09/21 07:20:06;;;;;;;2.50;2.30;;;;;;;19.77;65.00;97735.03;5114670;27;42857;-79
2023/09/21 07:22:33;;;;;;;2.97;2.37;;;;;;;19.76;65.08;97728.81;5114811;27;39044;-81
2023/09/21 07:25:02;;;;;;;3.07;2.50;;;;;;;19.81;65.00;97730.94;5114369;27;40873;-79
2023/09/21 07:27:32;;;;;;;2.53;2.17;;;;;;;19.85;65.29;97737.63;5131738;27;43225;-79
2023/09/21 07:30:00;;;;;;;4.07;2.87;;;;;;;19.82;65.33;97721.88;5132052;27;42420;-79
2023/09/21 07:32:29;;;;;;;2.80;2.30;;;;;;;19.97;64.84;97737.03;5132231;27;39020;-80
2023/09/21 07:34:57;;;;;;;3.60;2.27;;;;;;;20.09;64.82;97740.09;5131555;27;41614;-79
2023/09/21 07:37:24;;;;;;;5.83;2.17;;;;;;;20.26;64.82;97738.09;5114605;27;41465;-79
2023/09/21 07:39:52;;;;;;;2.20;2.00;;;;;;;20.50;64.48;97737.84;5131360;27;41239;-79
2023/09/21 07:42:19;;;;;;;5.00;2.77;;;;;;;20.79;63.64;97737.81;5130523;27;40137;-79
2023/09/21 07:44:49;;;;;;;2.17;1.97;;;;;;;21.03;63.04;97727.75;5130154;27;40785;-80
2023/09/21 07:47:17;;;;;;;3.20;2.50;;;;;;;21.57;61.88;97747.03;5130662;27;42698;-80
2023/09/21 07:49:45;;;;;;;3.20;2.57;;;;;;;22.00;61.40;97741.66;5131517;27;43010;-79
2023/09/21 07:52:13;;;;;;;4.07;2.50;;;;;;;22.36;59.36;97742.34;5130406;27;41151;-80
2023/09/21 07:54:40;;;;;;;3.17;2.80;;;;;;;22.70;58.04;97748.75;5115538;27;40996;-81
2023/09/21 07:57:08;;;;;;;3.30;2.40;;;;;;;22.76;57.60;97738.00;5133782;27;42881;-80
2023/09/21 07:59:35;;;;;;;3.13;2.57;;;;;;;22.94;56.47;97756.38;5133332;27;42200;-80
2023/09/21 08:02:04;;;;;;;3.83;2.80;;;;;;;23.00;56.60;97752.84;5133822;27;40257;-81
2023/09/21 08:04:32;;;;;;;3.00;2.40;;;;;;;23.04;56.90;97743.31;5133336;27;42768;-80
2023/09/21 08:07:00;;;;;;;2.90;2.60;;;;;;;23.12;56.92;97737.75;5133591;27;42830;-81
2023/09/21 08:09:28;;;;;;;2.73;2.10;;;;;;;23.17;57.00;97737.97;5133121;27;42435;-82
2023/09/21 08:11:56;;;;;;;3.80;2.77;;;;;;;23.21;56.61;97738.41;5116522;27;38847;-80
2023/09/21 08:14:23;;;;;;;4.67;2.80;;;;;;;23.22;56.90;97732.81;5134392;27;40731;-81
2023/09/21 08:16:52;;;;;;;2.67;2.27;;;;;;;23.31;56.72;97740.72;5135856;27;43645;-82
2023/09/21 08:19:21;;;;;;;2.33;2.13;;;;;;;23.22;56.29;97700.41;5117496;27;42245;-81
2023/09/21 08:21:49;;;;;;;3.40;2.27;;;;;;;23.76;55.83;97740.00;5134727;27;40385;-81
2023/09/21 08:24:16;;;;;;;2.60;2.40;;;;;;;24.31;54.82;97737.94;5134391;27;42734;-81
2023/09/21 08:26:44;;;;;;;2.53;2.03;;;;;;;25.59;52.23;97736.25;5117398;27;42946;-82
2023/09/21 08:29:13;;;;;;;3.67;2.80;;;;;;;27.48;49.05;97747.34;5134345;27;41222;-82
2023/09/21 08:31:41;;;;;;;4.47;2.50;;;;;;;28.93;45.18;97767.59;5135395;27;41009;-82
2023/09/21 08:34:08;;;;;;;2.83;2.33;;;;;;;29.92;42.98;97767.44;5134302;27;42300;-81
2023/09/21 08:36:37;;;;;;;2.83;2.37;;;;;;;30.76;41.79;97775.66;5116395;27;41221;-82
2023/09/21 08:39:06;;;;;;;2.20;2.00;;;;;;;30.85;40.61;97739.44;5116990;27;42013;-83
2023/09/21 08:41:36;;;;;;;2.23;2.03;;;;;;;31.04;39.63;97773.59;5134616;27;40964;-83
2023/09/21 08:44:05;;;;;;;3.47;2.40;;;;;;;31.21;40.26;97761.81;5132291;27;42262;-83
2023/09/21 08:46:34;;;;;;;2.23;2.03;;;;;;;31.39;39.30;97742.34;5133021;27;42702;-84
2023/09/21 08:49:03;;;;;;;2.80;2.50;;;;;;;32.82;36.85;97762.56;5132896;27;41501;-83
2023/09/21 08:51:32;;;;;;;2.47;2.27;;;;;;;32.46;36.65;97757.91;5132875;27;40008;-80
2023/09/21 08:54:03;;;;;;;3.13;2.43;;;;;;;31.61;37.93;97745.88;5132451;27;41821;-80
2023/09/21 08:56:33;;;;;;;3.23;2.43;;;;;;;31.03;38.75;97755.53;5131109;27;43768;-80
2023/09/21 08:59:02;;;;;;;3.47;2.93;;;;;;;32.11;38.29;97739.25;5132915;27;42371;-81
2023/09/21 09:01:29;;;;;;;2.83;2.10;;;;;;;34.10;36.31;97758.38;5134131;27;40891;-81
2023/09/21 09:03:57;;;;;;;2.03;1.93;;;;;;;34.69;35.45;97724.81;5115179;27;41452;-83
2023/09/21 09:06:24;;;;;;;2.30;2.10;;;;;;;35.09;34.13;97763.28;5131618;27;43270;-81
2023/09/21 09:08:52;;;;;;;2.50;2.07;;;;;;;35.42;32.95;97771.97;5132199;27;42682;-81
2023/09/21 09:11:35;;;;;;;2.00;1.90;;;;;;;35.21;33.44;97751.94;5134040;27;39926;-81
2023/09/21 09:14:03;;;;;;;2.07;1.90;;;;;;;34.53;33.41;97743.28;5116343;27;41930;-81
2023/09/21 09:16:33;;;;;;;1.70;1.60;;;;;;;33.97;33.66;97756.19;5133386;27;42075;-80
2023/09/21 09:19:05;;;;;;;2.40;2.10;;;;;;;33.50;35.03;97744.25;5133684;27;42059;-82
2023/09/21 09:21:33;;;;;;;1.90;1.80;;;;;;;33.16;35.43;97718.28;5130671;27;40667;-82
2023/09/21 09:24:02;;;;;;;2.93;2.00;;;;;;;32.94;35.85;97726.69;5133337;27;41478;-83
2023/09/21 09:26:30;;;;;;;1.90;1.67;;;;;;;32.59;35.87;97710.84;5134743;27;43104;-83
2023/09/21 09:29:05;;;;;;;2.63;2.00;;;;;;;32.41;36.16;97716.75;5113466;27;42683;-83
2023/09/21 09:31:33;;;;;;;3.77;2.47;;;;;;;32.37;36.41;97715.66;5114955;27;40675;-81
2023/09/21 09:34:04;;;;;;;1.70;1.60;;;;;;;32.29;36.68;97711.47;5132380;27;41761;-83
2023/09/21 09:36:33;;;;;;;2.23;2.00;;;;;;;32.16;36.89;97702.84;5132056;27;42947;-82
2023/09/21 09:39:01;;;;;;;2.00;1.80;;;;;;;32.08;36.33;97704.16;5131678;27;42094;-82
2023/09/21 09:41:30;;;;;;;2.60;2.00;;;;;;;31.91;36.99;97692.50;5132399;27;41172;-81
2023/09/21 09:44:00;;;;;;;2.67;1.97;;;;;;;31.80;37.60;97699.81;5132972;27;41923;-81
2023/09/21 09:46:30;;;;;;;2.03;1.70;;;;;;;31.43;37.46;97650.44;5114835;27;42927;-82
2023/09/21 09:49:01;;;;;;;2.03;1.63;;;;;;;31.60;38.02;97678.50;5132648;27;43592;-81
2023/09/21 09:51:38;;;;;;;1.60;1.33;;;;;;;31.75;38.34;97684.16;5132378;27;39658;-83
2023/09/21 09:54:08;;;;;;;2.00;1.80;;;;;;;31.92;38.07;97694.16;5130733;27;41967;-81
2023/09/21 09:56:41;;;;;;;1.93;1.73;;;;;;;32.16;37.77;97670.78;5132159;27;42098;-81
2023/09/21 09:59:11;;;;;;;2.90;1.87;;;;;;;33.04;35.83;97695.75;5131607;27;41214;-83
2023/09/21 10:01:41;;;;;;;1.63;1.53;;;;;;;33.62;35.07;97700.06;5133232;27;40626;-83
2023/09/21 10:04:09;;;;;;;1.90;1.70;;;;;;;33.96;34.27;97702.31;5130932;27;42029;-84
2023/09/21 10:06:37;;;;;;;1.87;1.63;;;;;;;34.82;33.05;97713.28;5133062;27;43861;-81
2023/09/21 10:09:10;;;;;;;2.07;1.70;;;;;;;35.15;32.57;97676.81;5131855;27;43333;-82
2023/09/21 10:11:42;;;;;;;2.50;1.50;;;;;;;35.34;32.61;97699.06;5128682;27;40344;-81
2023/09/21 10:14:11;;;;;;;1.57;1.37;;;;;;;34.98;32.09;97695.63;5132808;27;41730;-82
2023/09/21 10:16:49;;;;;;;2.03;1.63;;;;;;;34.49;32.23;97666.03;5132732;27;42943;-82
2023/09/21 10:19:17;;;;;;;3.13;2.00;;;;;;;34.15;32.70;97682.25;5132836;27;42771;-83
2023/09/21 10:21:45;;;;;;;2.50;1.90;;;;;;;33.83;34.43;97665.25;5133700;27;41325;-83
2023/09/21 10:24:18;;;;;;;1.97;1.50;;;;;;;33.48;34.21;97649.53;5133994;27;41802;-80
2023/09/21 10:26:49;;;;;;;1.40;1.30;;;;;;;33.26;34.99;97640.72;5123041;27;43088;-81
2023/09/21 10:29:19;;;;;;;1.60;1.50;;;;;;;33.13;35.08;97659.31;5138608;27;42337;-82
2023/09/21 10:31:55;;;;;;;1.67;1.57;;;;;;;32.82;35.45;97649.31;5134566;27;41844;-83
2023/09/21 10:34:26;;;;;;;1.40;1.30;;;;;;;32.53;35.89;97620.63;5131776;27;41557;-82
2023/09/21 10:37:01;;;;;;;1.67;1.57;;;;;;;32.53;36.16;97643.38;5113478;27;42334;-83
2023/09/21 10:39:32;;;;;;;3.10;1.60;;;;;;;32.42;36.31;97634.28;5114228;27;42524;-82
2023/09/21 10:42:33;;;;;;;1.50;1.40;;;;;;;32.26;35.71;97629.00;5133387;27;40981;-85
2023/09/21 10:45:07;;;;;;;1.63;1.53;;;;;;;32.07;36.70;97607.47;5131531;27;42707;-84
2023/09/21 10:47:40;;;;;;;3.40;1.50;;;;;;;32.30;36.33;97611.72;5129297;27;42848;-83
2023/09/21 10:50:11;;;;;;;1.67;1.40;;;;;;;32.35;35.98;97597.25;5114200;27;41055;-81
2023/09/21 10:52:41;;;;;;;1.80;1.30;;;;;;;32.42;35.89;97603.28;5131218;27;40038;-80
2023/09/21 10:55:11;;;;;;;2.27;2.00;;;;;;;32.37;33.97;97617.00;5131597;27;41899;-82
2023/09/21 10:57:40;;;;;;;1.57;1.47;;;;;;;32.22;34.31;97597.72;5130862;27;42081;-86
2023/09/21 11:00:15;;;;;;;1.73;1.60;;;;;;;32.15;34.42;97594.38;5114160;27;41220;-84
2023/09/21 11:02:46;;;;;;;1.50;1.30;;;;;;;32.18;34.59;97600.16;5113340;27;40280;-84
2023/09/21 11:05:16;;;;;;;2.70;1.60;;;;;;;32.11;33.87;97603.13;5129042;27;41828;-81
2023/09/21 11:07:45;;;;;;;2.23;1.70;;;;;;;32.04;33.48;97601.66;5113680;27;41431;-82
2023/09/21 11:10:14;;;;;;;1.30;1.20;;;;;;;32.08;33.34;97605.53;5113249;27;42327;-82
2023/09/21 11:12:42;;;;;;;1.87;1.77;;;;;;;32.07;33.26;97580.06;5113794;27;39798;-81
2023/09/21 11:15:13;;;;;;;1.60;1.40;;;;;;;32.29;32.39;97582.69;5132377;27;40888;-82
2023/09/21 11:17:42;;;;;;;2.23;1.60;;;;;;;32.54;32.93;97594.84;5114637;27;42847;-84
2023/09/21 11:20:14;;;;;;;1.80;1.50;;;;;;;32.68;33.03;97563.94;5114775;27;40943;-81
2023/09/21 11:22:43;;;;;;;2.00;1.80;;;;;;;32.93;32.70;97579.69;5128640;27;39948;-85
2023/09/21 11:25:12;;;;;;;1.90;1.77;;;;;;;32.95;32.40;97582.97;5131614;27;41096;-81
2023/09/21 11:27:41;;;;;;;1.33;1.10;;;;;;;32.82;32.60;97576.09;5131664;27;41986;-83
2023/09/21 11:30:13;;;;;;;1.30;1.20;;;;;;;32.77;32.80;97577.97;5118375;27;43934;-84
2023/09/21 11:32:44;;;;;;;1.50;1.30;;;;;;;32.65;33.16;97566.38;5118031;27;39025;-84
2023/09/21 11:35:16;;;;;;;2.73;1.60;;;;;;;32.39;32.21;97569.03;5135177;27;42001;-82
2023/09/21 11:37:44;;;;;;;2.07;1.60;;;;;;;32.24;32.52;97568.97;5117723;27;42934;-82
2023/09/21 11:40:13;;;;;;;1.90;1.47;;;;;;;32.20;32.60;97556.88;5134580;27;41349;-80
2023/09/21 11:42:44;;;;;;;1.63;1.30;;;;;;;32.27;32.93;97548.44;5117710;27;40168;-80
2023/09/21 11:45:16;;;;;;;2.20;1.60;;;;;;;32.30;32.40;97540.50;5121452;27;40475;-83
2023/09/21 11:47:49;;;;;;;1.77;1.33;;;;;;;32.37;31.58;97534.78;5121920;27;41893;-81
2023/09/21 11:50:26;;;;;;;1.93;1.40;;;;;;;32.63;31.13;97549.41;5121942;27;41401;-79
2023/09/21 11:52:56;;;;;;;1.77;1.43;;;;;;;32.80;31.96;97544.53;5134314;27;40357;-81
2023/09/21 11:55:25;;;;;;;1.47;1.37;;;;;;;32.75;32.34;97511.63;5133117;27;42667;-84
2023/09/21 11:57:54;;;;;;;1.33;1.23;;;;;;;32.87;32.45;97530.59;5134214;27;43130;-83
2023/09/21 12:00:38;;;;;;;1.30;1.20;;;;;;;32.72;31.95;97531.38;5134111;27;42255;-85
2023/09/21 12:03:07;;;;;;;1.40;1.30;;;;;;;32.57;31.96;97539.50;5132609;27;40710;-83
2023/09/21 12:05:36;;;;;;;2.57;1.37;;;;;;;32.39;31.49;97538.88;5133261;27;41933;-82
2023/09/21 12:08:05;;;;;;;2.10;1.50;;;;;;;32.20;31.72;97550.59;5133523;27;41704;-84
2023/09/21 12:10:33;;;;;;;1.53;1.20;;;;;;;32.00;31.95;97545.81;5134978;27;43224;-81
2023/09/21 12:13:00;;;;;;;1.60;1.30;;;;;;;31.89;32.55;97538.63;5135571;27;40177;-83
2023/09/21 12:15:28;;;;;;;1.73;1.30;;;;;;;31.58;32.84;97489.09;5135002;27;41564;-81
2023/09/21 12:17:55;;;;;;;1.23;1.10;;;;;;;31.91;32.35;97525.47;5134868;27;42937;-84
2023/09/21 12:20:23;;;;;;;1.50;1.40;;;;;;;31.91;32.34;97504.38;5136211;27;43654;-83
2023/09/21 12:22:52;;;;;;;2.53;1.50;;;;;;;32.03;31.88;97517.84;5135904;27;40889;-84
2023/09/21 12:25:21;;;;;;;1.93;1.20;;;;;;;32.42;31.93;97510.94;5134762;27;42169;-83
2023/09/21 12:27:48;;;;;;;1.23;1.13;;;;;;;32.92;31.51;97523.19;5134604;27;42765;-82
2023/09/21 12:30:17;;;;;;;1.93;1.30;;;;;;;33.44;30.87;97522.97;5134812;27;42179;-83
2023/09/21 12:32:45;;;;;;;1.70;1.40;;;;;;;33.72;29.59;97521.59;5134505;27;39219;-81
2023/09/21 12:35:17;;;;;;;1.77;1.40;;;;;;;33.96;29.10;97524.59;5135712;27;41992;-82
2023/09/21 12:37:45;;;;;;;1.43;1.33;;;;;;;34.22;29.71;97517.91;5117283;27;42110;-83